sensor_id;sensor_type;location;lat;lon;timestamp;P1;durP1;ratioP1;P2;durP2;ratioP2
26824;SDS011;14402;48.178;11.566;2022-12-22T00:17:23;3.5;;;2.6;;
26824;SDS011;14402;48.178;11.566;2022-12-22T00:20:46;3.0;;;2.5;;
26824;SDS011;14402;48.178;11.566;2022-12-22T01:17:27;2.1;;;1.7;;
26824;SDS011;14402;48.178;11.566;2022-12-22T02:17:10;2.1;;;1.7;;
26824;SDS011;14402;48.178;11.566;2022-12-22T02:20:39;2.8;;;1.9;;
26824;SDS011;14402;48.178;11.566;2022-12-22T02:24:38;1.9;;;1.6;;
26824;SDS011;14402;48.178;11.566;2022-12-22T03:17:31;1.9;;;1.5;;
26824;SDS011;14402;48.178;11.566;2022-12-22T03:21:30;1.2;;;1.0;;
26824;SDS011;14402;48.178;11.566;2022-12-22T03:25:30;1.9;;;1.3;;
26824;SDS011;14402;48.178;11.566;2022-12-22T03:26:02;2.2;;;1.4;;
26824;SDS011;14402;48.178;11.566;2022-12-22T03:26:30;2.2;;;1.4;;
26824;SDS011;14402;48.178;11.566;2022-12-22T03:27:00;2.2;;;1.4;;
26824;SDS011;14402;48.178;11.566;2022-12-22T03:27:30;1.9;;;1.2;;
26824;SDS011;14402;48.178;11.566;2022-12-22T03:28:00;1.6;;;1.1;;
26824;SDS011;14402;48.178;11.566;2022-12-22T03:28:30;1.6;;;1.1;;
26824;SDS011;14402;48.178;11.566;2022-12-22T03:29:00;1.6;;;1.1;;
26824;SDS011;14402;48.178;11.566;2022-12-22T03:29:30;1.4;;;1.1;;
26824;SDS011;14402;48.178;11.566;2022-12-22T03:30:00;1.2;;;1.1;;
26824;SDS011;14402;48.178;11.566;2022-12-22T03:30:30;1.2;;;1.1;;
26824;SDS011;14402;48.178;11.566;2022-12-22T03:31:01;1.2;;;1.1;;
26824;SDS011;14402;48.178;11.566;2022-12-22T03:31:30;1.6;;;1.3;;
26824;SDS011;14402;48.178;11.566;2022-12-22T03:32:00;2.1;;;1.5;;
26824;SDS011;14402;48.178;11.566;2022-12-22T03:32:30;2.1;;;1.5;;
26824;SDS011;14402;48.178;11.566;2022-12-22T03:33:00;2.1;;;1.5;;
26824;SDS011;14402;48.178;11.566;2022-12-22T03:33:31;1.8;;;1.4;;
26824;SDS011;14402;48.178;11.566;2022-12-22T03:34:00;1.4;;;1.3;;
26824;SDS011;14402;48.178;11.566;2022-12-22T03:34:30;1.4;;;1.3;;
26824;SDS011;14402;48.178;11.566;2022-12-22T03:35:00;1.4;;;1.3;;
26824;SDS011;14402;48.178;11.566;2022-12-22T03:35:30;1.4;;;1.2;;
26824;SDS011;14402;48.178;11.566;2022-12-22T03:36:00;1.4;;;1.2;;
26824;SDS011;14402;48.178;11.566;2022-12-22T03:36:30;1.4;;;1.2;;
26824;SDS011;14402;48.178;11.566;2022-12-22T03:37:00;1.4;;;1.2;;
26824;SDS011;14402;48.178;11.566;2022-12-22T03:37:30;1.5;;;1.2;;
26824;SDS011;14402;48.178;11.566;2022-12-22T03:38:00;1.5;;;1.2;;
26824;SDS011;14402;48.178;11.566;2022-12-22T03:38:30;1.5;;;1.2;;
26824;SDS011;14402;48.178;11.566;2022-12-22T03:39:00;1.5;;;1.2;;
26824;SDS011;14402;48.178;11.566;2022-12-22T03:39:30;1.5;;;1.2;;
26824;SDS011;14402;48.178;11.566;2022-12-22T03:40:00;1.6;;;1.3;;
26824;SDS011;14402;48.178;11.566;2022-12-22T03:40:30;1.6;;;1.3;;
26824;SDS011;14402;48.178;11.566;2022-12-22T03:41:00;1.6;;;1.3;;
26824;SDS011;14402;48.178;11.566;2022-12-22T03:41:30;1.5;;;1.1;;
26824;SDS011;14402;48.178;11.566;2022-12-22T03:45:00;1.0;;;0.9;;
26824;SDS011;14402;48.178;11.566;2022-12-22T03:49:01;1.4;;;0.7;;
26824;SDS011;14402;48.178;11.566;2022-12-22T03:49:30;1.1;;;0.6;;
26824;SDS011;14402;48.178;11.566;2022-12-22T03:50:00;0.9;;;0.6;;
26824;SDS011;14402;48.178;11.566;2022-12-22T03:50:30;0.9;;;0.6;;
26824;SDS011;14402;48.178;11.566;2022-12-22T03:51:00;0.9;;;0.6;;
26824;SDS011;14402;48.178;11.566;2022-12-22T03:51:30;1.5;;;0.6;;
26824;SDS011;14402;48.178;11.566;2022-12-22T03:52:00;2.1;;;0.7;;
26824;SDS011;14402;48.178;11.566;2022-12-22T03:52:30;2.1;;;0.7;;
26824;SDS011;14402;48.178;11.566;2022-12-22T03:53:00;2.1;;;0.7;;
26824;SDS011;14402;48.178;11.566;2022-12-22T03:53:30;2.3;;;0.8;;
26824;SDS011;14402;48.178;11.566;2022-12-22T03:54:00;2.6;;;0.8;;
26824;SDS011;14402;48.178;11.566;2022-12-22T03:54:30;2.6;;;0.8;;
26824;SDS011;14402;48.178;11.566;2022-12-22T03:55:00;2.6;;;0.8;;
26824;SDS011;14402;48.178;11.566;2022-12-22T03:55:30;2.0;;;0.8;;
26824;SDS011;14402;48.178;11.566;2022-12-22T03:56:00;1.5;;;0.8;;
26824;SDS011;14402;48.178;11.566;2022-12-22T03:56:30;1.5;;;0.8;;
26824;SDS011;14402;48.178;11.566;2022-12-22T03:57:00;1.5;;;0.8;;
26824;SDS011;14402;48.178;11.566;2022-12-22T03:57:30;2.2;;;0.9;;
26824;SDS011;14402;48.178;11.566;2022-12-22T03:58:00;3.0;;;0.9;;
26824;SDS011;14402;48.178;11.566;2022-12-22T03:58:30;3.0;;;0.9;;
26824;SDS011;14402;48.178;11.566;2022-12-22T03:59:00;3.0;;;0.9;;
26824;SDS011;14402;48.178;11.566;2022-12-22T03:59:30;2.7;;;0.9;;
26824;SDS011;14402;48.178;11.566;2022-12-22T04:00:00;2.4;;;1.0;;
26824;SDS011;14402;48.178;11.566;2022-12-22T04:00:30;2.4;;;1.0;;
26824;SDS011;14402;48.178;11.566;2022-12-22T04:01:04;2.4;;;1.0;;
26824;SDS011;14402;48.178;11.566;2022-12-22T04:01:30;2.0;;;0.9;;
26824;SDS011;14402;48.178;11.566;2022-12-22T04:02:00;1.5;;;0.8;;
26824;SDS011;14402;48.178;11.566;2022-12-22T04:02:30;1.5;;;0.8;;
26824;SDS011;14402;48.178;11.566;2022-12-22T04:03:00;1.5;;;0.8;;
26824;SDS011;14402;48.178;11.566;2022-12-22T04:03:30;1.5;;;0.8;;
26824;SDS011;14402;48.178;11.566;2022-12-22T04:04:01;1.5;;;0.8;;
26824;SDS011;14402;48.178;11.566;2022-12-22T04:04:31;1.5;;;0.8;;
26824;SDS011;14402;48.178;11.566;2022-12-22T04:05:00;1.5;;;0.8;;
26824;SDS011;14402;48.178;11.566;2022-12-22T04:05:30;1.6;;;0.9;;
26824;SDS011;14402;48.178;11.566;2022-12-22T04:06:00;1.8;;;0.9;;
26824;SDS011;14402;48.178;11.566;2022-12-22T04:06:31;1.8;;;0.9;;
26824;SDS011;14402;48.178;11.566;2022-12-22T04:07:00;1.8;;;0.9;;
26824;SDS011;14402;48.178;11.566;2022-12-22T04:07:30;1.7;;;0.9;;
26824;SDS011;14402;48.178;11.566;2022-12-22T04:08:00;1.6;;;0.9;;
26824;SDS011;14402;48.178;11.566;2022-12-22T04:08:30;1.6;;;0.9;;
26824;SDS011;14402;48.178;11.566;2022-12-22T04:09:00;1.6;;;0.9;;
26824;SDS011;14402;48.178;11.566;2022-12-22T04:09:30;1.5;;;0.8;;
26824;SDS011;14402;48.178;11.566;2022-12-22T04:10:00;1.4;;;0.7;;
26824;SDS011;14402;48.178;11.566;2022-12-22T04:13:31;1.7;;;0.8;;
26824;SDS011;14402;48.178;11.566;2022-12-22T04:14:01;1.1;;;0.8;;
26824;SDS011;14402;48.178;11.566;2022-12-22T04:14:30;1.1;;;0.8;;
26824;SDS011;14402;48.178;11.566;2022-12-22T04:15:01;1.1;;;0.8;;
26824;SDS011;14402;48.178;11.566;2022-12-22T04:15:31;1.1;;;0.8;;
26824;SDS011;14402;48.178;11.566;2022-12-22T04:16:01;1.1;;;0.8;;
26824;SDS011;14402;48.178;11.566;2022-12-22T04:16:31;1.1;;;0.8;;
26824;SDS011;14402;48.178;11.566;2022-12-22T04:17:01;1.1;;;0.8;;
26824;SDS011;14402;48.178;11.566;2022-12-22T04:17:32;1.2;;;0.8;;
26824;SDS011;14402;48.178;11.566;2022-12-22T04:18:01;1.3;;;0.8;;
26824;SDS011;14402;48.178;11.566;2022-12-22T04:18:31;1.3;;;0.8;;
26824;SDS011;14402;48.178;11.566;2022-12-22T04:19:01;1.3;;;0.8;;
26824;SDS011;14402;48.178;11.566;2022-12-22T04:19:31;1.1;;;0.8;;
26824;SDS011;14402;48.178;11.566;2022-12-22T04:20:01;1.0;;;0.7;;
26824;SDS011;14402;48.178;11.566;2022-12-22T04:20:31;1.0;;;0.7;;
26824;SDS011;14402;48.178;11.566;2022-12-22T04:21:01;1.0;;;0.7;;
26824;SDS011;14402;48.178;11.566;2022-12-22T04:21:31;1.0;;;0.7;;
26824;SDS011;14402;48.178;11.566;2022-12-22T04:22:01;1.0;;;0.7;;
26824;SDS011;14402;48.178;11.566;2022-12-22T04:22:31;1.0;;;0.7;;
26824;SDS011;14402;48.178;11.566;2022-12-22T04:23:01;1.0;;;0.7;;
26824;SDS011;14402;48.178;11.566;2022-12-22T04:23:31;1.9;;;0.8;;
26824;SDS011;14402;48.178;11.566;2022-12-22T04:24:01;2.8;;;0.8;;
26824;SDS011;14402;48.178;11.566;2022-12-22T04:24:31;2.8;;;0.8;;
26824;SDS011;14402;48.178;11.566;2022-12-22T04:25:01;2.8;;;0.8;;
26824;SDS011;14402;48.178;11.566;2022-12-22T04:25:31;2.2;;;0.8;;
26824;SDS011;14402;48.178;11.566;2022-12-22T04:26:01;1.5;;;0.7;;
26824;SDS011;14402;48.178;11.566;2022-12-22T04:26:31;1.5;;;0.7;;
26824;SDS011;14402;48.178;11.566;2022-12-22T04:27:01;1.5;;;0.7;;
26824;SDS011;14402;48.178;11.566;2022-12-22T04:27:31;1.6;;;0.7;;
26824;SDS011;14402;48.178;11.566;2022-12-22T04:28:01;1.7;;;0.7;;
26824;SDS011;14402;48.178;11.566;2022-12-22T04:28:31;1.7;;;0.7;;
26824;SDS011;14402;48.178;11.566;2022-12-22T04:29:01;1.7;;;0.7;;
26824;SDS011;14402;48.178;11.566;2022-12-22T04:29:31;1.4;;;0.8;;
26824;SDS011;14402;48.178;11.566;2022-12-22T04:30:01;1.1;;;0.9;;
26824;SDS011;14402;48.178;11.566;2022-12-22T04:30:31;1.1;;;0.9;;
26824;SDS011;14402;48.178;11.566;2022-12-22T04:31:01;1.1;;;0.9;;
26824;SDS011;14402;48.178;11.566;2022-12-22T04:31:31;1.7;;;0.9;;
26824;SDS011;14402;48.178;11.566;2022-12-22T04:32:01;2.3;;;1.0;;
26824;SDS011;14402;48.178;11.566;2022-12-22T04:32:31;2.3;;;1.0;;
26824;SDS011;14402;48.178;11.566;2022-12-22T04:33:01;2.3;;;1.0;;
26824;SDS011;14402;48.178;11.566;2022-12-22T04:33:31;2.2;;;0.9;;
26824;SDS011;14402;48.178;11.566;2022-12-22T04:34:01;2.0;;;0.9;;
26824;SDS011;14402;48.178;11.566;2022-12-22T04:34:31;2.0;;;0.9;;
26824;SDS011;14402;48.178;11.566;2022-12-22T04:35:01;2.0;;;0.9;;
26824;SDS011;14402;48.178;11.566;2022-12-22T04:35:31;1.9;;;0.8;;
26824;SDS011;14402;48.178;11.566;2022-12-22T04:36:01;1.8;;;0.7;;
26824;SDS011;14402;48.178;11.566;2022-12-22T04:36:31;1.8;;;0.7;;
26824;SDS011;14402;48.178;11.566;2022-12-22T04:37:01;1.8;;;0.7;;
26824;SDS011;14402;48.178;11.566;2022-12-22T04:37:31;1.5;;;0.8;;
26824;SDS011;14402;48.178;11.566;2022-12-22T04:38:01;1.3;;;0.9;;
26824;SDS011;14402;48.178;11.566;2022-12-22T04:38:31;1.3;;;0.9;;
26824;SDS011;14402;48.178;11.566;2022-12-22T04:39:01;1.3;;;0.9;;
26824;SDS011;14402;48.178;11.566;2022-12-22T04:39:31;1.9;;;0.9;;
26824;SDS011;14402;48.178;11.566;2022-12-22T04:40:01;2.4;;;0.9;;
26824;SDS011;14402;48.178;11.566;2022-12-22T04:40:31;2.4;;;0.9;;
26824;SDS011;14402;48.178;11.566;2022-12-22T04:41:01;2.4;;;0.9;;
26824;SDS011;14402;48.178;11.566;2022-12-22T04:41:31;1.9;;;0.8;;
26824;SDS011;14402;48.178;11.566;2022-12-22T04:42:01;1.3;;;0.7;;
26824;SDS011;14402;48.178;11.566;2022-12-22T04:42:31;1.3;;;0.7;;
26824;SDS011;14402;48.178;11.566;2022-12-22T04:43:01;1.3;;;0.7;;
26824;SDS011;14402;48.178;11.566;2022-12-22T04:43:31;1.3;;;0.7;;
26824;SDS011;14402;48.178;11.566;2022-12-22T04:44:01;1.3;;;0.7;;
26824;SDS011;14402;48.178;11.566;2022-12-22T04:44:31;1.3;;;0.7;;
26824;SDS011;14402;48.178;11.566;2022-12-22T04:45:01;1.3;;;0.7;;
26824;SDS011;14402;48.178;11.566;2022-12-22T04:45:31;1.3;;;0.7;;
26824;SDS011;14402;48.178;11.566;2022-12-22T04:46:01;1.3;;;0.7;;
26824;SDS011;14402;48.178;11.566;2022-12-22T04:46:31;1.3;;;0.7;;
26824;SDS011;14402;48.178;11.566;2022-12-22T04:47:01;1.3;;;0.7;;
26824;SDS011;14402;48.178;11.566;2022-12-22T04:47:31;1.3;;;0.8;;
26824;SDS011;14402;48.178;11.566;2022-12-22T04:48:01;1.3;;;0.8;;
26824;SDS011;14402;48.178;11.566;2022-12-22T04:48:31;1.3;;;0.8;;
26824;SDS011;14402;48.178;11.566;2022-12-22T04:49:01;1.3;;;0.8;;
26824;SDS011;14402;48.178;11.566;2022-12-22T04:49:31;1.3;;;0.8;;
26824;SDS011;14402;48.178;11.566;2022-12-22T04:50:01;1.3;;;0.7;;
26824;SDS011;14402;48.178;11.566;2022-12-22T04:50:31;1.3;;;0.7;;
26824;SDS011;14402;48.178;11.566;2022-12-22T04:51:01;1.3;;;0.7;;
26824;SDS011;14402;48.178;11.566;2022-12-22T04:51:31;1.3;;;0.7;;
26824;SDS011;14402;48.178;11.566;2022-12-22T04:52:01;1.4;;;0.7;;
26824;SDS011;14402;48.178;11.566;2022-12-22T04:52:31;1.4;;;0.7;;
26824;SDS011;14402;48.178;11.566;2022-12-22T04:53:01;1.4;;;0.7;;
26824;SDS011;14402;48.178;11.566;2022-12-22T04:53:31;1.2;;;0.6;;
26824;SDS011;14402;48.178;11.566;2022-12-22T04:54:01;1.0;;;0.6;;
26824;SDS011;14402;48.178;11.566;2022-12-22T04:54:31;1.0;;;0.6;;
26824;SDS011;14402;48.178;11.566;2022-12-22T04:55:01;1.0;;;0.6;;
26824;SDS011;14402;48.178;11.566;2022-12-22T04:55:31;0.9;;;0.6;;
26824;SDS011;14402;48.178;11.566;2022-12-22T04:56:02;0.9;;;0.6;;
26824;SDS011;14402;48.178;11.566;2022-12-22T04:56:31;0.9;;;0.6;;
26824;SDS011;14402;48.178;11.566;2022-12-22T04:57:01;0.9;;;0.6;;
26824;SDS011;14402;48.178;11.566;2022-12-22T04:57:31;1.1;;;0.6;;
26824;SDS011;14402;48.178;11.566;2022-12-22T04:58:01;1.4;;;0.6;;
26824;SDS011;14402;48.178;11.566;2022-12-22T04:58:31;1.4;;;0.6;;
26824;SDS011;14402;48.178;11.566;2022-12-22T04:59:01;1.4;;;0.6;;
26824;SDS011;14402;48.178;11.566;2022-12-22T04:59:31;2.0;;;0.6;;
26824;SDS011;14402;48.178;11.566;2022-12-22T05:00:01;2.6;;;0.7;;
26824;SDS011;14402;48.178;11.566;2022-12-22T05:00:31;2.6;;;0.7;;
26824;SDS011;14402;48.178;11.566;2022-12-22T05:01:09;2.6;;;0.7;;
26824;SDS011;14402;48.178;11.566;2022-12-22T05:01:31;1.8;;;0.6;;
26824;SDS011;14402;48.178;11.566;2022-12-22T05:02:01;1.0;;;0.6;;
26824;SDS011;14402;48.178;11.566;2022-12-22T05:02:31;1.0;;;0.6;;
26824;SDS011;14402;48.178;11.566;2022-12-22T05:03:01;1.0;;;0.6;;
26824;SDS011;14402;48.178;11.566;2022-12-22T05:03:31;1.2;;;0.6;;
26824;SDS011;14402;48.178;11.566;2022-12-22T05:04:01;1.4;;;0.6;;
26824;SDS011;14402;48.178;11.566;2022-12-22T05:04:31;1.4;;;0.6;;
26824;SDS011;14402;48.178;11.566;2022-12-22T05:05:01;1.4;;;0.6;;
26824;SDS011;14402;48.178;11.566;2022-12-22T05:05:31;1.6;;;0.6;;
26824;SDS011;14402;48.178;11.566;2022-12-22T05:06:01;1.8;;;0.5;;
26824;SDS011;14402;48.178;11.566;2022-12-22T05:06:31;1.8;;;0.5;;
26824;SDS011;14402;48.178;11.566;2022-12-22T05:07:01;1.8;;;0.5;;
26824;SDS011;14402;48.178;11.566;2022-12-22T05:07:31;1.5;;;0.5;;
26824;SDS011;14402;48.178;11.566;2022-12-22T05:08:01;1.2;;;0.5;;
26824;SDS011;14402;48.178;11.566;2022-12-22T05:08:31;1.2;;;0.5;;
26824;SDS011;14402;48.178;11.566;2022-12-22T05:09:01;1.2;;;0.5;;
26824;SDS011;14402;48.178;11.566;2022-12-22T05:09:31;1.2;;;0.5;;
26824;SDS011;14402;48.178;11.566;2022-12-22T05:10:02;1.1;;;0.5;;
26824;SDS011;14402;48.178;11.566;2022-12-22T05:10:31;1.1;;;0.5;;
26824;SDS011;14402;48.178;11.566;2022-12-22T05:11:01;1.1;;;0.5;;
26824;SDS011;14402;48.178;11.566;2022-12-22T05:11:31;1.0;;;0.4;;
26824;SDS011;14402;48.178;11.566;2022-12-22T05:12:01;0.8;;;0.4;;
26824;SDS011;14402;48.178;11.566;2022-12-22T05:12:53;0.8;;;0.4;;
26824;SDS011;14402;48.178;11.566;2022-12-22T05:13:01;0.8;;;0.4;;
26824;SDS011;14402;48.178;11.566;2022-12-22T05:13:31;1.3;;;0.4;;
26824;SDS011;14402;48.178;11.566;2022-12-22T05:14:01;1.8;;;0.5;;
26824;SDS011;14402;48.178;11.566;2022-12-22T05:14:31;1.8;;;0.5;;
26824;SDS011;14402;48.178;11.566;2022-12-22T05:15:01;1.8;;;0.5;;
26824;SDS011;14402;48.178;11.566;2022-12-22T05:15:32;1.5;;;0.5;;
26824;SDS011;14402;48.178;11.566;2022-12-22T05:16:02;1.3;;;0.5;;
26824;SDS011;14402;48.178;11.566;2022-12-22T05:16:31;1.3;;;0.5;;
26824;SDS011;14402;48.178;11.566;2022-12-22T05:17:01;1.3;;;0.5;;
26824;SDS011;14402;48.178;11.566;2022-12-22T05:17:32;1.5;;;0.5;;
26824;SDS011;14402;48.178;11.566;2022-12-22T05:18:01;1.8;;;0.5;;
26824;SDS011;14402;48.178;11.566;2022-12-22T05:18:31;1.8;;;0.5;;
26824;SDS011;14402;48.178;11.566;2022-12-22T05:19:01;1.8;;;0.5;;
26824;SDS011;14402;48.178;11.566;2022-12-22T05:19:31;1.3;;;0.4;;
26824;SDS011;14402;48.178;11.566;2022-12-22T05:20:01;0.9;;;0.4;;
26824;SDS011;14402;48.178;11.566;2022-12-22T05:20:33;0.9;;;0.4;;
26824;SDS011;14402;48.178;11.566;2022-12-22T05:21:02;0.9;;;0.4;;
26824;SDS011;14402;48.178;11.566;2022-12-22T05:21:31;0.9;;;0.4;;
26824;SDS011;14402;48.178;11.566;2022-12-22T05:22:01;0.9;;;0.5;;
26824;SDS011;14402;48.178;11.566;2022-12-22T05:22:31;0.9;;;0.5;;
26824;SDS011;14402;48.178;11.566;2022-12-22T05:23:01;0.9;;;0.5;;
26824;SDS011;14402;48.178;11.566;2022-12-22T05:23:31;0.9;;;0.4;;
26824;SDS011;14402;48.178;11.566;2022-12-22T05:24:01;0.8;;;0.4;;
26824;SDS011;14402;48.178;11.566;2022-12-22T05:24:31;0.8;;;0.4;;
26824;SDS011;14402;48.178;11.566;2022-12-22T05:25:01;0.8;;;0.4;;
26824;SDS011;14402;48.178;11.566;2022-12-22T05:25:31;0.8;;;0.4;;
26824;SDS011;14402;48.178;11.566;2022-12-22T05:26:01;0.7;;;0.4;;
26824;SDS011;14402;48.178;11.566;2022-12-22T05:26:31;0.7;;;0.4;;
26824;SDS011;14402;48.178;11.566;2022-12-22T05:27:01;0.7;;;0.4;;
26824;SDS011;14402;48.178;11.566;2022-12-22T05:27:31;1.0;;;0.4;;
26824;SDS011;14402;48.178;11.566;2022-12-22T05:28:01;1.4;;;0.5;;
26824;SDS011;14402;48.178;11.566;2022-12-22T05:28:31;1.4;;;0.5;;
26824;SDS011;14402;48.178;11.566;2022-12-22T05:29:01;1.4;;;0.5;;
26824;SDS011;14402;48.178;11.566;2022-12-22T05:29:31;2.0;;;0.5;;
26824;SDS011;14402;48.178;11.566;2022-12-22T05:30:01;2.6;;;0.5;;
26824;SDS011;14402;48.178;11.566;2022-12-22T05:30:31;2.6;;;0.5;;
26824;SDS011;14402;48.178;11.566;2022-12-22T05:31:02;2.6;;;0.5;;
26824;SDS011;14402;48.178;11.566;2022-12-22T05:31:31;2.2;;;0.6;;
26824;SDS011;14402;48.178;11.566;2022-12-22T05:32:01;1.7;;;0.6;;
26824;SDS011;14402;48.178;11.566;2022-12-22T05:32:31;1.7;;;0.6;;
26824;SDS011;14402;48.178;11.566;2022-12-22T05:33:01;1.7;;;0.6;;
26824;SDS011;14402;48.178;11.566;2022-12-22T05:33:31;1.8;;;0.5;;
26824;SDS011;14402;48.178;11.566;2022-12-22T05:34:01;1.9;;;0.4;;
26824;SDS011;14402;48.178;11.566;2022-12-22T05:34:31;1.9;;;0.4;;
26824;SDS011;14402;48.178;11.566;2022-12-22T05:35:02;1.9;;;0.4;;
26824;SDS011;14402;48.178;11.566;2022-12-22T05:35:31;1.7;;;0.4;;
26824;SDS011;14402;48.178;11.566;2022-12-22T05:36:01;1.5;;;0.5;;
26824;SDS011;14402;48.178;11.566;2022-12-22T05:36:31;1.5;;;0.5;;
26824;SDS011;14402;48.178;11.566;2022-12-22T05:37:01;1.5;;;0.5;;
26824;SDS011;14402;48.178;11.566;2022-12-22T05:37:31;1.7;;;0.6;;
26824;SDS011;14402;48.178;11.566;2022-12-22T05:38:01;1.9;;;0.7;;
26824;SDS011;14402;48.178;11.566;2022-12-22T05:38:31;1.9;;;0.7;;
26824;SDS011;14402;48.178;11.566;2022-12-22T05:39:01;1.9;;;0.7;;
26824;SDS011;14402;48.178;11.566;2022-12-22T05:39:31;2.0;;;0.8;;
26824;SDS011;14402;48.178;11.566;2022-12-22T05:40:01;2.1;;;0.8;;
26824;SDS011;14402;48.178;11.566;2022-12-22T05:40:32;2.1;;;0.8;;
26824;SDS011;14402;48.178;11.566;2022-12-22T05:41:01;2.1;;;0.8;;
26824;SDS011;14402;48.178;11.566;2022-12-22T05:41:31;1.5;;;0.8;;
26824;SDS011;14402;48.178;11.566;2022-12-22T05:42:01;0.9;;;0.7;;
26824;SDS011;14402;48.178;11.566;2022-12-22T05:42:31;0.9;;;0.7;;
26824;SDS011;14402;48.178;11.566;2022-12-22T05:43:01;0.9;;;0.7;;
26824;SDS011;14402;48.178;11.566;2022-12-22T05:43:32;1.3;;;0.8;;
26824;SDS011;14402;48.178;11.566;2022-12-22T05:44:01;1.8;;;0.8;;
26824;SDS011;14402;48.178;11.566;2022-12-22T05:44:31;1.8;;;0.8;;
26824;SDS011;14402;48.178;11.566;2022-12-22T05:45:03;1.8;;;0.8;;
26824;SDS011;14402;48.178;11.566;2022-12-22T05:45:31;1.8;;;1.0;;
26824;SDS011;14402;48.178;11.566;2022-12-22T05:46:02;1.7;;;1.2;;
26824;SDS011;14402;48.178;11.566;2022-12-22T05:46:31;1.7;;;1.2;;
26824;SDS011;14402;48.178;11.566;2022-12-22T05:47:01;1.7;;;1.2;;
26824;SDS011;14402;48.178;11.566;2022-12-22T05:47:31;1.7;;;1.1;;
26824;SDS011;14402;48.178;11.566;2022-12-22T05:48:01;1.7;;;1.0;;
26824;SDS011;14402;48.178;11.566;2022-12-22T05:48:31;1.7;;;1.0;;
26824;SDS011;14402;48.178;11.566;2022-12-22T05:49:01;1.7;;;1.0;;
26824;SDS011;14402;48.178;11.566;2022-12-22T05:49:31;1.6;;;0.9;;
26824;SDS011;14402;48.178;11.566;2022-12-22T05:50:02;1.5;;;0.8;;
26824;SDS011;14402;48.178;11.566;2022-12-22T05:50:31;1.5;;;0.8;;
26824;SDS011;14402;48.178;11.566;2022-12-22T05:51:01;1.5;;;0.8;;
26824;SDS011;14402;48.178;11.566;2022-12-22T05:51:31;1.5;;;0.9;;
26824;SDS011;14402;48.178;11.566;2022-12-22T05:52:02;1.5;;;0.9;;
26824;SDS011;14402;48.178;11.566;2022-12-22T05:52:31;1.5;;;0.9;;
26824;SDS011;14402;48.178;11.566;2022-12-22T05:53:02;1.5;;;0.9;;
26824;SDS011;14402;48.178;11.566;2022-12-22T05:53:32;1.5;;;0.9;;
26824;SDS011;14402;48.178;11.566;2022-12-22T05:54:02;1.6;;;0.9;;
26824;SDS011;14402;48.178;11.566;2022-12-22T05:54:31;1.6;;;0.9;;
26824;SDS011;14402;48.178;11.566;2022-12-22T05:55:02;1.6;;;0.9;;
26824;SDS011;14402;48.178;11.566;2022-12-22T05:55:32;1.7;;;0.9;;
26824;SDS011;14402;48.178;11.566;2022-12-22T05:56:02;1.7;;;1.0;;
26824;SDS011;14402;48.178;11.566;2022-12-22T05:56:31;1.7;;;1.0;;
26824;SDS011;14402;48.178;11.566;2022-12-22T05:57:02;1.7;;;1.0;;
26824;SDS011;14402;48.178;11.566;2022-12-22T05:57:32;1.5;;;0.9;;
26824;SDS011;14402;48.178;11.566;2022-12-22T05:58:02;1.4;;;0.9;;
26824;SDS011;14402;48.178;11.566;2022-12-22T05:58:32;1.4;;;0.9;;
26824;SDS011;14402;48.178;11.566;2022-12-22T05:59:02;1.4;;;0.9;;
26824;SDS011;14402;48.178;11.566;2022-12-22T05:59:32;1.5;;;0.9;;
26824;SDS011;14402;48.178;11.566;2022-12-22T06:00:03;1.6;;;0.9;;
26824;SDS011;14402;48.178;11.566;2022-12-22T06:00:32;1.6;;;0.9;;
26824;SDS011;14402;48.178;11.566;2022-12-22T06:01:02;1.6;;;0.9;;
26824;SDS011;14402;48.178;11.566;2022-12-22T06:01:32;1.8;;;0.9;;
26824;SDS011;14402;48.178;11.566;2022-12-22T06:02:02;2.1;;;1.0;;
26824;SDS011;14402;48.178;11.566;2022-12-22T06:02:32;2.1;;;1.0;;
26824;SDS011;14402;48.178;11.566;2022-12-22T06:03:02;2.1;;;1.0;;
26824;SDS011;14402;48.178;11.566;2022-12-22T06:03:32;1.8;;;0.9;;
26824;SDS011;14402;48.178;11.566;2022-12-22T06:04:02;1.6;;;0.9;;
26824;SDS011;14402;48.178;11.566;2022-12-22T06:04:32;1.6;;;0.9;;
26824;SDS011;14402;48.178;11.566;2022-12-22T06:05:02;1.6;;;0.9;;
26824;SDS011;14402;48.178;11.566;2022-12-22T06:05:32;1.8;;;0.9;;
26824;SDS011;14402;48.178;11.566;2022-12-22T06:06:02;2.0;;;0.8;;
26824;SDS011;14402;48.178;11.566;2022-12-22T06:06:32;2.0;;;0.8;;
26824;SDS011;14402;48.178;11.566;2022-12-22T06:07:02;2.0;;;0.8;;
26824;SDS011;14402;48.178;11.566;2022-12-22T06:07:32;1.4;;;0.7;;
26824;SDS011;14402;48.178;11.566;2022-12-22T06:08:02;0.7;;;0.6;;
26824;SDS011;14402;48.178;11.566;2022-12-22T06:08:32;0.7;;;0.6;;
26824;SDS011;14402;48.178;11.566;2022-12-22T06:09:02;0.7;;;0.6;;
26824;SDS011;14402;48.178;11.566;2022-12-22T06:09:32;1.1;;;0.6;;
26824;SDS011;14402;48.178;11.566;2022-12-22T06:10:02;1.5;;;0.7;;
26824;SDS011;14402;48.178;11.566;2022-12-22T06:10:32;1.5;;;0.7;;
26824;SDS011;14402;48.178;11.566;2022-12-22T06:11:02;1.5;;;0.7;;
26824;SDS011;14402;48.178;11.566;2022-12-22T06:11:32;1.2;;;0.7;;
26824;SDS011;14402;48.178;11.566;2022-12-22T06:12:02;1.0;;;0.7;;
26824;SDS011;14402;48.178;11.566;2022-12-22T06:12:32;1.0;;;0.7;;
26824;SDS011;14402;48.178;11.566;2022-12-22T06:13:02;1.0;;;0.7;;
26824;SDS011;14402;48.178;11.566;2022-12-22T06:13:32;0.9;;;0.6;;
26824;SDS011;14402;48.178;11.566;2022-12-22T06:14:02;0.8;;;0.6;;
26824;SDS011;14402;48.178;11.566;2022-12-22T06:14:32;0.8;;;0.6;;
26824;SDS011;14402;48.178;11.566;2022-12-22T06:15:02;0.8;;;0.6;;
26824;SDS011;14402;48.178;11.566;2022-12-22T06:15:32;1.3;;;0.8;;
26824;SDS011;14402;48.178;11.566;2022-12-22T06:16:02;1.8;;;0.9;;
26824;SDS011;14402;48.178;11.566;2022-12-22T06:16:32;1.8;;;0.9;;
26824;SDS011;14402;48.178;11.566;2022-12-22T06:17:02;1.8;;;0.9;;
26824;SDS011;14402;48.178;11.566;2022-12-22T06:17:33;1.8;;;0.9;;
26824;SDS011;14402;48.178;11.566;2022-12-22T06:18:02;1.7;;;0.8;;
26824;SDS011;14402;48.178;11.566;2022-12-22T06:18:32;1.7;;;0.8;;
26824;SDS011;14402;48.178;11.566;2022-12-22T06:19:02;1.7;;;0.8;;
26824;SDS011;14402;48.178;11.566;2022-12-22T06:19:32;1.9;;;0.9;;
26824;SDS011;14402;48.178;11.566;2022-12-22T06:20:02;2.0;;;1.0;;
26824;SDS011;14402;48.178;11.566;2022-12-22T06:20:32;2.0;;;1.0;;
26824;SDS011;14402;48.178;11.566;2022-12-22T06:21:02;2.0;;;1.0;;
26824;SDS011;14402;48.178;11.566;2022-12-22T06:21:32;1.5;;;1.0;;
26824;SDS011;14402;48.178;11.566;2022-12-22T06:22:02;1.1;;;1.0;;
26824;SDS011;14402;48.178;11.566;2022-12-22T06:22:32;1.1;;;1.0;;
26824;SDS011;14402;48.178;11.566;2022-12-22T06:23:02;1.1;;;1.0;;
26824;SDS011;14402;48.178;11.566;2022-12-22T06:23:32;1.8;;;0.9;;
26824;SDS011;14402;48.178;11.566;2022-12-22T06:24:02;2.6;;;0.9;;
26824;SDS011;14402;48.178;11.566;2022-12-22T06:24:32;2.6;;;0.9;;
26824;SDS011;14402;48.178;11.566;2022-12-22T06:25:02;2.6;;;0.9;;
26824;SDS011;14402;48.178;11.566;2022-12-22T06:25:32;2.2;;;0.9;;
26824;SDS011;14402;48.178;11.566;2022-12-22T06:26:02;1.8;;;0.8;;
26824;SDS011;14402;48.178;11.566;2022-12-22T06:26:32;1.8;;;0.8;;
26824;SDS011;14402;48.178;11.566;2022-12-22T06:27:02;1.8;;;0.8;;
26824;SDS011;14402;48.178;11.566;2022-12-22T06:27:32;1.8;;;0.9;;
26824;SDS011;14402;48.178;11.566;2022-12-22T06:28:02;1.8;;;0.9;;
26824;SDS011;14402;48.178;11.566;2022-12-22T06:28:32;1.8;;;0.9;;
26824;SDS011;14402;48.178;11.566;2022-12-22T06:29:02;1.8;;;0.9;;
26824;SDS011;14402;48.178;11.566;2022-12-22T06:29:32;1.9;;;1.0;;
26824;SDS011;14402;48.178;11.566;2022-12-22T06:30:02;2.0;;;1.2;;
26824;SDS011;14402;48.178;11.566;2022-12-22T06:30:32;2.0;;;1.2;;
26824;SDS011;14402;48.178;11.566;2022-12-22T06:31:02;2.0;;;1.2;;
26824;SDS011;14402;48.178;11.566;2022-12-22T06:31:32;1.9;;;1.2;;
26824;SDS011;14402;48.178;11.566;2022-12-22T06:32:02;1.8;;;1.2;;
26824;SDS011;14402;48.178;11.566;2022-12-22T06:32:34;1.8;;;1.2;;
26824;SDS011;14402;48.178;11.566;2022-12-22T06:33:02;1.8;;;1.2;;
26824;SDS011;14402;48.178;11.566;2022-12-22T06:33:32;1.8;;;1.1;;
26824;SDS011;14402;48.178;11.566;2022-12-22T06:34:02;1.7;;;1.0;;